Time;durP1;ratioP1;P1;durP2;ratioP2;P2;SDS_P1;SDS_P2;PMS_P1;PMS_P2;Temp;Humidity;BMP_temperature;BMP_pressure;BME280_temperature;BME280_humidity;BME280_pressure;Samples;Min_cycle;Max_cycle;Signal;HPM_P1;HPM_P2
2021/12/15 00:01:37;;;;;;;106.72;42.70;;;;;;;;;;5097664;28;20051;-81
2021/12/15 00:04:03;;;;;;;101.75;45.05;;;;;;;;;;5097453;28;20109;-80
2021/12/15 00:06:30;;;;;;;111.85;45.10;;;;;;;;;;5097363;28;20137;-80
2021/12/15 00:08:57;;;;;;;110.50;44.05;;;;;;;;;;5097447;28;20043;-80
2021/12/15 00:11:31;;;;;;;97.82;42.13;;;;;;;;;;5097788;28;20116;-82
2021/12/15 00:13:58;;;;;;;103.88;44.42;;;;;;;;;;5115238;28;20489;-82
2021/12/15 00:16:24;;;;;;;97.38;42.83;;;;;;;;;;5115519;28;20058;-82
2021/12/15 00:18:50;;;;;;;98.43;42.72;;;;;;;;;;5097293;28;20039;-81
2021/12/15 00:21:19;;;;;;;97.03;44.13;;;;;;;;;;5115583;28;20070;-82
2021/12/15 00:23:45;;;;;;;101.30;42.72;;;;;;;;;;5097783;28;20119;-82
2021/12/15 00:26:11;;;;;;;95.75;41.33;;;;;;;;;;5097332;28;20057;-82
2021/12/15 00:28:38;;;;;;;93.15;42.00;;;;;;;;;;5115396;28;20127;-81
2021/12/15 00:31:05;;;;;;;87.50;43.10;;;;;;;;;;5097439;28;20052;-81
2021/12/15 00:33:32;;;;;;;90.95;42.03;;;;;;;;;;5097473;28;20469;-81
2021/12/15 00:35:58;;;;;;;95.95;43.30;;;;;;;;;;5115200;28;20054;-81
2021/12/15 00:38:24;;;;;;;94.82;43.90;;;;;;;;;;5115662;28;20452;-81
2021/12/15 00:40:50;;;;;;;95.65;43.83;;;;;;;;;;5115335;28;20134;-82
2021/12/15 00:43:17;;;;;;;96.22;44.13;;;;;;;;;;5115222;28;20043;-80
2021/12/15 00:45:44;;;;;;;93.72;43.83;;;;;;;;;;5114845;28;20495;-81
2021/12/15 00:48:10;;;;;;;85.53;43.35;;;;;;;;;;5096800;28;20053;-82
2021/12/15 00:50:36;;;;;;;88.90;43.40;;;;;;;;;;5114776;28;20082;-82
2021/12/15 00:53:04;;;;;;;90.82;44.00;;;;;;;;;;5114782;28;20381;-82
2021/12/15 00:55:30;;;;;;;87.05;43.75;;;;;;;;;;5080075;28;20108;-82
2021/12/15 00:57:57;;;;;;;85.72;41.47;;;;;;;;;;5114984;28;20043;-81
2021/12/15 01:00:53;;;;;;;88.80;42.15;;;;;;;;;;5114426;28;20044;-80
2021/12/15 01:03:19;;;;;;;83.75;43.03;;;;;;;;;;5075340;28;20488;-81
2021/12/15 01:05:50;;;;;;;87.90;42.55;;;;;;;;;;5096510;28;20506;-81
2021/12/15 01:08:19;;;;;;;89.25;42.22;;;;;;;;;;5114541;28;20057;-81
2021/12/15 01:21:49;;;;;;;93.13;41.42;;;;;;;;;;5114072;28;20130;-81
2021/12/15 01:24:15;;;;;;;85.57;40.83;;;;;;;;;;5096338;28;20436;-81
2021/12/15 01:26:41;;;;;;;92.10;42.55;;;;;;;;;;5114052;28;20126;-81
2021/12/15 01:29:07;;;;;;;87.40;40.72;;;;;;;;;;5114116;28;20140;-80
2021/12/15 01:31:34;;;;;;;93.93;41.20;;;;;;;;;;5079144;28;20047;-81
2021/12/15 01:34:00;;;;;;;95.70;41.75;;;;;;;;;;5113880;28;20045;-81
2021/12/15 01:36:27;;;;;;;86.10;39.38;;;;;;;;;;5114052;28;20517;-81
2021/12/15 01:38:53;;;;;;;84.80;40.60;;;;;;;;;;5114104;28;20096;-81
2021/12/15 01:41:21;;;;;;;88.53;40.05;;;;;;;;;;5095777;28;20118;-80
2021/12/15 01:49:06;;;;;;;77.97;39.05;;;;;;;;;;5113754;28;20050;-81
2021/12/15 01:51:32;;;;;;;76.93;37.60;;;;;;;;;;5095689;28;20099;-82
2021/12/15 01:53:58;;;;;;;88.25;38.45;;;;;;;;;;5078752;28;20135;-82
2021/12/15 01:56:25;;;;;;;87.50;40.28;;;;;;;;;;5113632;28;20123;-82
2021/12/15 01:58:51;;;;;;;85.80;38.92;;;;;;;;;;5095600;28;20075;-81
2021/12/15 02:01:17;;;;;;;78.10;37.92;;;;;;;;;;5095374;28;20463;-82
2021/12/15 02:03:43;;;;;;;84.07;37.65;;;;;;;;;;5095413;28;20167;-82
2021/12/15 02:06:10;;;;;;;78.93;37.10;;;;;;;;;;5095194;28;20092;-81
2021/12/15 02:08:37;;;;;;;78.32;36.72;;;;;;;;;;5095452;28;20108;-81
2021/12/15 02:11:04;;;;;;;78.97;36.63;;;;;;;;;;5112546;28;20536;-81
2021/12/15 02:13:30;;;;;;;85.68;37.90;;;;;;;;;;5091298;28;20052;-80
2021/12/15 02:15:57;;;;;;;83.78;37.83;;;;;;;;;;5091809;28;20135;-81
2021/12/15 02:18:27;;;;;;;78.47;36.83;;;;;;;;;;5092976;28;20491;-80
2021/12/15 02:20:55;;;;;;;72.63;35.63;;;;;;;;;;5093016;28;20465;-81
2021/12/15 02:23:26;;;;;;;82.00;36.25;;;;;;;;;;5091851;28;20127;-81
2021/12/15 02:25:52;;;;;;;72.93;34.00;;;;;;;;;;5092766;28;20040;-81
2021/12/15 02:28:18;;;;;;;70.65;34.50;;;;;;;;;;5091581;28;20048;-82
2021/12/15 02:38:51;;;;;;;69.53;33.33;;;;;;;;;;5092431;28;20491;-81
2021/12/15 02:41:22;;;;;;;85.70;36.50;;;;;;;;;;5074815;28;20050;-80
2021/12/15 02:43:54;;;;;;;76.53;34.97;;;;;;;;;;5091457;28;20053;-81
2021/12/15 02:46:20;;;;;;;67.70;35.22;;;;;;;;;;5092725;28;20082;-81
2021/12/15 02:48:47;;;;;;;75.60;35.75;;;;;;;;;;5091542;28;20462;-80
2021/12/15 02:51:13;;;;;;;69.22;33.38;;;;;;;;;;5093027;28;20040;-80
2021/12/15 02:53:51;;;;;;;72.75;35.92;;;;;;;;;;5091237;28;20103;-80
2021/12/15 02:56:18;;;;;;;71.93;33.90;;;;;;;;;;5092567;28;20040;-82
2021/12/15 02:59:06;;;;;;;71.32;35.58;;;;;;;;;;5091113;28;20097;-81
2021/12/15 03:04:26;;;;;;;70.95;35.72;;;;;;;;;;5091731;28;20086;-81
2021/12/15 03:07:27;;;;;;;73.65;35.67;;;;;;;;;;5091981;28;20091;-81
2021/12/15 03:17:53;;;;;;;84.78;36.03;;;;;;;;;;5092518;28;20079;-80
2021/12/15 03:20:19;;;;;;;70.43;34.22;;;;;;;;;;5092477;28;20044;-81
2021/12/15 03:22:46;;;;;;;75.82;35.15;;;;;;;;;;5093678;28;20448;-81
2021/12/15 03:25:12;;;;;;;74.97;36.60;;;;;;;;;;5096128;28;20059;-80
2021/12/15 03:36:03;;;;;;;76.97;35.10;;;;;;;;;;5096009;28;20054;-80
2021/12/15 03:38:30;;;;;;;83.30;37.25;;;;;;;;;;5095740;28;20098;-81
2021/12/15 03:40:56;;;;;;;89.85;37.67;;;;;;;;;;5094714;28;20127;-80
2021/12/15 03:43:22;;;;;;;86.82;36.70;;;;;;;;;;5095534;28;20090;-81
2021/12/15 03:45:51;;;;;;;86.93;37.10;;;;;;;;;;5077816;28;20044;-82
2021/12/15 03:48:19;;;;;;;90.18;38.13;;;;;;;;;;5077418;28;20465;-80
2021/12/15 03:50:46;;;;;;;96.15;37.22;;;;;;;;;;5094708;28;20101;-81
2021/12/15 03:53:13;;;;;;;95.10;38.15;;;;;;;;;;5095494;28;20040;-81
2021/12/15 03:55:40;;;;;;;81.13;35.92;;;;;;;;;;5095442;28;20078;-80
2021/12/15 03:58:10;;;;;;;82.53;37.30;;;;;;;;;;5095323;28;20134;-80
2021/12/15 04:00:39;;;;;;;87.68;37.15;;;;;;;;;;5095528;28;20040;-81
2021/12/15 04:03:08;;;;;;;86.07;37.42;;;;;;;;;;5094233;28;20079;-81
2021/12/15 04:05:34;;;;;;;98.55;39.60;;;;;;;;;;5095362;28;20097;-81
2021/12/15 04:08:00;;;;;;;90.55;38.70;;;;;;;;;;5094247;28;20127;-81
2021/12/15 04:10:26;;;;;;;91.68;38.28;;;;;;;;;;5095141;28;20461;-81
2021/12/15 04:12:53;;;;;;;97.10;40.47;;;;;;;;;;5095707;28;20071;-81
2021/12/15 04:17:46;;;;;;;88.28;38.00;;;;;;;;;;5115559;28;20084;-82
2021/12/15 04:20:15;;;;;;;97.30;41.42;;;;;;;;;;5080540;28;20050;-82
2021/12/15 04:22:41;;;;;;;95.38;41.50;;;;;;;;;;5115277;28;20046;-80
2021/12/15 04:25:10;;;;;;;99.53;41.15;;;;;;;;;;5115024;28;20050;-81
2021/12/15 04:27:36;;;;;;;99.63;42.35;;;;;;;;;;5115331;28;20385;-80
2021/12/15 04:30:03;;;;;;;97.38;41.03;;;;;;;;;;5115218;28;20477;-81
2021/12/15 04:32:32;;;;;;;104.50;41.90;;;;;;;;;;5097105;28;20035;-81
2021/12/15 04:34:59;;;;;;;93.70;41.40;;;;;;;;;;5114055;28;20122;-80
2021/12/15 04:37:25;;;;;;;104.90;43.90;;;;;;;;;;5114897;28;20144;-80
2021/12/15 04:39:51;;;;;;;99.57;40.75;;;;;;;;;;5114863;28;20044;-80
2021/12/15 04:42:19;;;;;;;100.40;42.63;;;;;;;;;;5114944;28;20464;-81
2021/12/15 04:44:46;;;;;;;102.47;43.58;;;;;;;;;;5096730;28;20306;-81
2021/12/15 04:47:13;;;;;;;94.55;43.00;;;;;;;;;;5096292;28;20066;-81
2021/12/15 04:49:41;;;;;;;98.05;42.80;;;;;;;;;;5114846;28;20057;-81
2021/12/15 04:52:08;;;;;;;100.28;43.42;;;;;;;;;;5114777;28;20079;-81
2021/12/15 04:54:34;;;;;;;99.18;43.42;;;;;;;;;;5114918;28;20047;-81
2021/12/15 04:57:01;;;;;;;93.75;43.10;;;;;;;;;;5114817;28;20047;-80
2021/12/15 04:59:28;;;;;;;93.10;42.95;;;;;;;;;;5096801;28;20068;-80
2021/12/15 05:01:54;;;;;;;102.32;44.28;;;;;;;;;;5096672;28;20050;-80
2021/12/15 05:04:20;;;;;;;94.70;42.60;;;;;;;;;;5096497;28;20042;-81
2021/12/15 05:06:46;;;;;;;107.00;47.22;;;;;;;;;;5096100;28;20052;-80
2021/12/15 05:09:14;;;;;;;108.20;48.58;;;;;;;;;;5114656;28;20469;-80
2021/12/15 05:11:40;;;;;;;109.53;47.88;;;;;;;;;;5096292;28;20107;-81
2021/12/15 05:14:06;;;;;;;107.53;46.08;;;;;;;;;;5114186;28;20047;-81
2021/12/15 05:16:33;;;;;;;107.68;48.78;;;;;;;;;;5114247;28;20134;-81
2021/12/15 05:18:59;;;;;;;98.07;47.17;;;;;;;;;;5114209;28;20451;-81
2021/12/15 05:21:25;;;;;;;104.90;48.22;;;;;;;;;;5113972;28;20040;-81
2021/12/15 05:23:59;;;;;;;105.95;48.45;;;;;;;;;;5114179;28;20550;-82
2021/12/15 05:26:25;;;;;;;103.65;44.92;;;;;;;;;;5095741;28;20054;-82
2021/12/15 05:28:52;;;;;;;95.90;48.13;;;;;;;;;;5095968;28;20039;-81
2021/12/15 05:31:18;;;;;;;94.88;46.20;;;;;;;;;;5113955;28;20050;-80
2021/12/15 05:33:45;;;;;;;97.95;47.13;;;;;;;;;;5113790;28;20069;-81
2021/12/15 05:36:11;;;;;;;98.90;46.72;;;;;;;;;;5114401;28;20047;-81
2021/12/15 05:38:37;;;;;;;97.95;46.67;;;;;;;;;;5113919;28;20039;-81
2021/12/15 05:41:03;;;;;;;97.03;46.22;;;;;;;;;;5113849;28;20090;-81
2021/12/15 05:43:29;;;;;;;93.30;45.33;;;;;;;;;;5113747;28;20096;-81
2021/12/15 05:45:56;;;;;;;97.30;46.88;;;;;;;;;;5095316;28;20047;-81
2021/12/15 05:48:22;;;;;;;92.93;47.72;;;;;;;;;;5095759;28;20047;-81
2021/12/15 05:50:50;;;;;;;92.32;47.78;;;;;;;;;;5095822;28;20403;-82
2021/12/15 05:53:16;;;;;;;100.85;48.80;;;;;;;;;;5113703;28;20090;-81
2021/12/15 05:55:43;;;;;;;90.50;44.40;;;;;;;;;;5113582;28;20065;-81
2021/12/15 05:58:09;;;;;;;90.28;45.85;;;;;;;;;;5113816;28;20047;-81
2021/12/15 06:00:37;;;;;;;97.32;48.30;;;;;;;;;;5095147;28;20126;-81
2021/12/15 06:03:05;;;;;;;94.70;48.65;;;;;;;;;;5113267;28;20052;-81
2021/12/15 06:05:31;;;;;;;91.90;45.60;;;;;;;;;;5095311;28;20434;-81
2021/12/15 06:07:57;;;;;;;96.57;49.67;;;;;;;;;;5113457;28;20130;-82
2021/12/15 06:10:26;;;;;;;99.07;48.70;;;;;;;;;;5093207;28;20040;-82
2021/12/15 06:12:52;;;;;;;96.10;46.60;;;;;;;;;;5094288;28;20460;-81
2021/12/15 06:15:24;;;;;;;101.20;50.08;;;;;;;;;;5094077;28;20055;-81
2021/12/15 06:17:57;;;;;;;102.97;50.63;;;;;;;;;;5112313;28;20093;-81
2021/12/15 06:20:24;;;;;;;99.65;49.58;;;;;;;;;;5112628;28;20054;-82
2021/12/15 06:22:53;;;;;;;109.82;49.70;;;;;;;;;;5094971;28;20389;-82
2021/12/15 06:25:19;;;;;;;103.40;49.25;;;;;;;;;;5112790;28;20130;-83
2021/12/15 06:27:45;;;;;;;105.88;50.20;;;;;;;;;;5094867;28;20126;-81
2021/12/15 06:30:11;;;;;;;97.97;48.75;;;;;;;;;;5112684;28;20247;-82
2021/12/15 06:32:38;;;;;;;103.85;50.05;;;;;;;;;;5113015;28;20044;-82
2021/12/15 06:35:05;;;;;;;102.00;50.65;;;;;;;;;;5113209;28;20042;-80
2021/12/15 06:37:31;;;;;;;105.97;51.83;;;;;;;;;;5112928;28;20519;-81
2021/12/15 06:39:57;;;;;;;96.93;48.45;;;;;;;;;;5113107;28;20054;-81
2021/12/15 06:42:24;;;;;;;92.20;47.47;;;;;;;;;;5095018;28;20123;-82
2021/12/15 06:44:50;;;;;;;100.40;50.38;;;;;;;;;;5094850;28;20074;-81
2021/12/15 06:57:30;;;;;;;97.75;49.63;;;;;;;;;;5112815;28;20079;-81
2021/12/15 06:58:25;;;;;;;96.30;49.78;;;;;;;;;;5115424;28;20059;-81
2021/12/15 07:00:54;;;;;;;98.70;50.15;;;;;;;;;;5116919;28;20039;-81
2021/12/15 07:03:21;;;;;;;92.97;48.70;;;;;;;;;;5116735;28;20134;-82
2021/12/15 07:05:47;;;;;;;94.95;49.25;;;;;;;;;;5116581;28;20556;-80
2021/12/15 07:08:14;;;;;;;99.30;48.75;;;;;;;;;;5116909;28;20043;-80
2021/12/15 07:10:42;;;;;;;93.75;48.88;;;;;;;;;;5116863;28;20380;-81
2021/12/15 07:13:08;;;;;;;96.63;49.83;;;;;;;;;;5098652;28;20090;-80
2021/12/15 07:15:36;;;;;;;96.00;50.42;;;;;;;;;;5098626;28;20047;-81
2021/12/15 07:18:05;;;;;;;99.85;49.67;;;;;;;;;;5081351;28;20179;-82
2021/12/15 07:23:02;;;;;;;100.10;50.38;;;;;;;;;;5098509;28;20043;-80
2021/12/15 07:25:29;;;;;;;100.90;50.42;;;;;;;;;;5116462;28;20127;-81
2021/12/15 07:27:55;;;;;;;87.75;46.13;;;;;;;;;;5116395;28;20088;-81
2021/12/15 07:30:22;;;;;;;98.32;49.83;;;;;;;;;;5098158;28;20123;-82
2021/12/15 07:32:48;;;;;;;97.55;48.42;;;;;;;;;;5116276;28;20046;-81
2021/12/15 07:35:15;;;;;;;96.97;49.72;;;;;;;;;;5116559;28;20050;-81
2021/12/15 07:37:41;;;;;;;98.03;48.38;;;;;;;;;;5081402;28;20042;-81
2021/12/15 07:40:12;;;;;;;95.22;48.42;;;;;;;;;;5116123;28;20040;-81
2021/12/15 07:43:05;;;;;;;96.25;48.00;;;;;;;;;;5116046;28;20048;-82
2021/12/15 07:45:28;;;;;;;91.03;47.45;;;;;;;;;;5115573;28;20086;-81
2021/12/15 07:47:55;;;;;;;88.38;46.25;;;;;;;;;;5116157;28;20118;-82
2021/12/15 07:50:23;;;;;;;97.63;48.40;;;;;;;;;;5115886;28;20039;-82
2021/12/15 07:52:50;;;;;;;94.13;48.05;;;;;;;;;;5115901;28;20049;-80
2021/12/15 07:55:17;;;;;;;83.30;44.05;;;;;;;;;;5115434;28;20047;-80
2021/12/15 07:57:43;;;;;;;87.90;46.10;;;;;;;;;;5114494;28;20047;-80
2021/12/15 08:00:11;;;;;;;90.13;44.88;;;;;;;;;;5097335;28;20038;-81
2021/12/15 08:02:37;;;;;;;93.35;46.10;;;;;;;;;;5097351;28;20075;-81
2021/12/15 08:05:03;;;;;;;91.72;44.88;;;;;;;;;;5115382;28;20122;-82
2021/12/15 08:07:30;;;;;;;93.35;46.28;;;;;;;;;;5115001;28;20035;-81
2021/12/15 08:09:56;;;;;;;91.82;46.97;;;;;;;;;;5114056;28;20131;-83
2021/12/15 08:12:22;;;;;;;86.00;44.55;;;;;;;;;;5115322;28;20518;-81
2021/12/15 08:14:48;;;;;;;81.80;44.28;;;;;;;;;;5115152;28;20095;-81
2021/12/15 08:17:15;;;;;;;90.18;45.75;;;;;;;;;;5115491;28;20075;-81
2021/12/15 08:19:41;;;;;;;88.70;44.53;;;;;;;;;;5115402;28;20043;-81
2021/12/15 08:22:07;;;;;;;88.47;47.03;;;;;;;;;;5097038;28;20058;-82
2021/12/15 08:24:34;;;;;;;82.78;43.80;;;;;;;;;;5097257;28;20039;-82
2021/12/15 08:27:00;;;;;;;78.80;42.88;;;;;;;;;;5114981;28;20495;-81
2021/12/15 08:29:26;;;;;;;82.78;42.95;;;;;;;;;;5115302;28;20051;-81
2021/12/15 08:31:52;;;;;;;85.78;43.45;;;;;;;;;;5080254;28;20051;-81
2021/12/15 08:34:19;;;;;;;80.70;43.33;;;;;;;;;;5115160;28;20047;-82
2021/12/15 08:36:49;;;;;;;84.95;42.42;;;;;;;;;;5115161;28;20039;-81
2021/12/15 08:39:16;;;;;;;78.05;42.03;;;;;;;;;;5096934;28;20051;-82
2021/12/15 08:41:42;;;;;;;80.90;43.13;;;;;;;;;;5115140;28;20039;-81
2021/12/15 08:44:10;;;;;;;77.97;42.10;;;;;;;;;;5115084;28;20130;-82
2021/12/15 08:46:39;;;;;;;79.32;42.10;;;;;;;;;;5114726;28;20050;-81
2021/12/15 08:49:06;;;;;;;76.07;41.60;;;;;;;;;;5114732;28;20046;-81
2021/12/15 08:51:34;;;;;;;82.63;43.47;;;;;;;;;;5114546;28;20134;-80
2021/12/15 08:54:02;;;;;;;82.05;44.45;;;;;;;;;;5096398;28;20541;-81
2021/12/15 08:56:29;;;;;;;82.57;41.72;;;;;;;;;;5114613;28;20086;-81
2021/12/15 08:58:55;;;;;;;75.47;42.33;;;;;;;;;;5096856;28;20056;-81
2021/12/15 09:01:22;;;;;;;79.88;41.95;;;;;;;;;;5114627;28;20455;-81
2021/12/15 09:03:48;;;;;;;76.93;42.42;;;;;;;;;;5114469;28;20458;-81
2021/12/15 09:06:15;;;;;;;79.55;43.35;;;;;;;;;;5114168;28;20136;-81
2021/12/15 09:08:42;;;;;;;76.03;41.47;;;;;;;;;;5114711;28;20092;-80
2021/12/15 09:11:10;;;;;;;81.53;44.95;;;;;;;;;;5114414;28;20224;-81
2021/12/15 09:13:36;;;;;;;76.85;41.70;;;;;;;;;;5114167;28;20047;-81
2021/12/15 09:16:05;;;;;;;73.63;41.90;;;;;;;;;;5114233;28;20055;-81
2021/12/15 09:18:31;;;;;;;80.30;44.05;;;;;;;;;;5114130;28;20040;-80
2021/12/15 09:20:58;;;;;;;73.30;42.88;;;;;;;;;;5093985;28;20075;-81
2021/12/15 09:23:25;;;;;;;81.20;42.63;;;;;;;;;;5078436;28;20050;-80
2021/12/15 09:25:51;;;;;;;80.47;43.53;;;;;;;;;;5113463;28;20050;-81
2021/12/15 09:28:19;;;;;;;78.85;43.70;;;;;;;;;;5113267;28;20035;-81
2021/12/15 09:30:46;;;;;;;73.72;41.55;;;;;;;;;;5095669;28;20096;-80
2021/12/15 09:33:17;;;;;;;80.38;43.03;;;;;;;;;;5113927;28;20045;-80
2021/12/15 09:35:43;;;;;;;78.40;41.40;;;;;;;;;;5113713;28;20047;-80
2021/12/15 09:38:10;;;;;;;71.82;39.80;;;;;;;;;;5113916;28;20043;-81
2021/12/15 09:40:36;;;;;;;69.53;40.10;;;;;;;;;;5095734;28;20043;-81
2021/12/15 09:43:04;;;;;;;71.82;41.28;;;;;;;;;;5113623;28;20044;-80
2021/12/15 10:10:41;;;;;;;58.28;35.35;;;;;;;;;;5094621;28;20058;-81
2021/12/15 10:20:56;;;;;;;50.05;31.33;;;;;;;;;;5094781;28;20051;-81
2021/12/15 10:23:29;;;;;;;55.25;32.28;;;;;;;;;;5094764;28;20043;-80
2021/12/15 10:25:57;;;;;;;54.38;31.95;;;;;;;;;;5112961;28;20039;-82
2021/12/15 10:28:31;;;;;;;48.90;30.65;;;;;;;;;;5112862;28;20512;-82
2021/12/15 10:31:02;;;;;;;49.38;30.40;;;;;;;;;;5094531;28;20039;-82
2021/12/15 10:33:41;;;;;;;41.13;28.42;;;;;;;;;;5110722;28;20516;-81
2021/12/15 10:36:07;;;;;;;48.28;30.50;;;;;;;;;;5112949;28;20044;-80
2021/12/15 10:38:37;;;;;;;44.00;29.20;;;;;;;;;;5113114;28;20035;-81
2021/12/15 10:41:08;;;;;;;48.28;29.02;;;;;;;;;;5094940;28;20047;-81
2021/12/15 10:43:47;;;;;;;45.67;27.63;;;;;;;;;;5112807;28;20163;-80
2021/12/15 10:46:24;;;;;;;41.20;27.98;;;;;;;;;;5112585;28;20052;-81
2021/12/15 10:48:50;;;;;;;47.10;26.92;;;;;;;;;;5095037;28;20139;-81
2021/12/15 10:51:22;;;;;;;45.17;28.00;;;;;;;;;;5094473;28;20043;-80
2021/12/15 10:53:49;;;;;;;42.60;27.13;;;;;;;;;;5094218;28;20043;-80
2021/12/15 10:56:17;;;;;;;42.53;27.17;;;;;;;;;;5094317;28;20365;-80
2021/12/15 10:58:46;;;;;;;39.35;25.67;;;;;;;;;;5112384;28;20051;-80
2021/12/15 11:01:37;;;;;;;42.55;27.08;;;;;;;;;;5112255;28;20496;-80
2021/12/15 11:04:13;;;;;;;39.42;23.92;;;;;;;;;;5112416;28;20047;-81
2021/12/15 11:06:40;;;;;;;37.50;24.73;;;;;;;;;;5112506;28;20073;-81
2021/12/15 11:09:12;;;;;;;39.10;24.98;;;;;;;;;;5112398;28;20071;-80
2021/12/15 11:11:38;;;;;;;41.60;24.90;;;;;;;;;;5112340;28;20362;-80
2021/12/15 11:14:22;;;;;;;37.03;24.05;;;;;;;;;;5090669;28;20083;-80
2021/12/15 11:17:01;;;;;;;37.92;24.20;;;;;;;;;;5092141;28;20489;-80
2021/12/15 11:19:39;;;;;;;38.40;24.17;;;;;;;;;;5092016;28;20075;-83
2021/12/15 11:22:24;;;;;;;35.95;23.00;;;;;;;;;;5091059;28;20048;-82
2021/12/15 11:24:50;;;;;;;38.63;23.13;;;;;;;;;;5092276;28;20048;-83
2021/12/15 11:27:17;;;;;;;43.30;24.38;;;;;;;;;;5074477;28;20154;-82
2021/12/15 11:29:43;;;;;;;39.17;23.60;;;;;;;;;;5092183;28;20123;-81
2021/12/15 11:32:30;;;;;;;33.60;22.77;;;;;;;;;;5092072;28;20126;-83
2021/12/15 11:35:03;;;;;;;37.72;22.90;;;;;;;;;;5092004;28;20497;-81
2021/12/15 11:37:47;;;;;;;35.47;22.75;;;;;;;;;;5092158;28;20040;-81
2021/12/15 11:40:13;;;;;;;41.00;23.02;;;;;;;;;;5091904;28;20054;-80
2021/12/15 11:42:40;;;;;;;33.92;22.35;;;;;;;;;;5090758;28;20044;-80
2021/12/15 11:45:11;;;;;;;33.35;21.98;;;;;;;;;;5095580;28;20047;-80
2021/12/15 11:47:37;;;;;;;32.88;21.00;;;;;;;;;;5095813;28;20040;-81
2021/12/15 11:50:22;;;;;;;34.58;20.83;;;;;;;;;;5095422;28;20047;-80
2021/12/15 11:52:49;;;;;;;30.25;19.73;;;;;;;;;;5095488;28;20073;-81
2021/12/15 11:55:24;;;;;;;30.08;19.80;;;;;;;;;;5095371;28;20054;-80
2021/12/15 11:57:50;;;;;;;28.08;17.38;;;;;;;;;;5095429;28;20047;-81
2021/12/15 12:00:17;;;;;;;29.27;16.38;;;;;;;;;;5095195;28;20417;-80
2021/12/15 12:02:51;;;;;;;24.20;15.73;;;;;;;;;;5094982;28;20040;-79
2021/12/15 12:05:26;;;;;;;26.70;16.35;;;;;;;;;;5094111;28;20047;-80
2021/12/15 12:07:58;;;;;;;26.05;15.32;;;;;;;;;;5095135;28;20047;-81
2021/12/15 12:10:30;;;;;;;25.58;15.82;;;;;;;;;;5094382;28;20596;-80
2021/12/15 12:13:05;;;;;;;23.48;14.18;;;;;;;;;;5095260;28;20040;-80
2021/12/15 12:15:33;;;;;;;20.70;12.60;;;;;;;;;;5111365;28;20091;-80
2021/12/15 12:18:02;;;;;;;19.30;11.85;;;;;;;;;;5115270;28;20392;-81
2021/12/15 12:20:30;;;;;;;23.60;13.07;;;;;;;;;;5115460;28;20036;-81
2021/12/15 12:22:57;;;;;;;26.55;14.93;;;;;;;;;;5115274;28;20549;-81
2021/12/15 12:25:24;;;;;;;25.17;16.20;;;;;;;;;;5115213;28;20047;-81
2021/12/15 12:27:50;;;;;;;30.08;16.50;;;;;;;;;;5115141;28;20564;-81
2021/12/15 12:30:19;;;;;;;31.17;17.92;;;;;;;;;;5095057;28;20180;-81
2021/12/15 12:32:45;;;;;;;30.30;18.45;;;;;;;;;;5096060;28;20044;-81
2021/12/15 12:35:12;;;;;;;30.83;19.42;;;;;;;;;;5096220;28;20057;-80
2021/12/15 12:37:39;;;;;;;33.20;20.33;;;;;;;;;;5114425;28;20051;-80
2021/12/15 12:40:22;;;;;;;34.13;20.27;;;;;;;;;;5114528;28;20040;-80
2021/12/15 12:42:48;;;;;;;35.67;20.08;;;;;;;;;;5114857;28;20096;-81
2021/12/15 12:45:15;;;;;;;32.00;18.05;;;;;;;;;;5096699;28;20383;-81
2021/12/15 12:47:59;;;;;;;33.00;18.83;;;;;;;;;;5096705;28;20043;-79
2021/12/15 13:01:19;;;;;;;24.38;15.13;;;;;;;;;;5096585;28;20051;-81
2021/12/15 13:03:49;;;;;;;24.38;15.27;;;;;;;;;;5114372;28;20066;-81
2021/12/15 13:06:17;;;;;;;25.98;15.10;;;;;;;;;;5114541;28;20051;-80
2021/12/15 13:08:44;;;;;;;25.02;15.27;;;;;;;;;;5114541;28;20050;-80
2021/12/15 13:11:14;;;;;;;25.63;15.57;;;;;;;;;;5096322;28;20481;-81
2021/12/15 13:13:50;;;;;;;24.17;14.67;;;;;;;;;;5096042;28;20047;-80
2021/12/15 13:16:23;;;;;;;24.67;14.63;;;;;;;;;;5096051;28;20123;-80
2021/12/15 13:18:53;;;;;;;25.63;14.23;;;;;;;;;;5096221;28;20055;-80
2021/12/15 13:21:22;;;;;;;23.08;13.85;;;;;;;;;;5114373;28;20036;-80
2021/12/15 13:23:57;;;;;;;25.02;13.65;;;;;;;;;;5114196;28;20397;-81
2021/12/15 13:29:48;;;;;;;23.53;12.97;;;;;;;;;;5113881;28;20485;-81
2021/12/15 13:32:15;;;;;;;23.80;12.45;;;;;;;;;;5113865;28;20431;-80
2021/12/15 13:34:43;;;;;;;20.98;11.40;;;;;;;;;;5079043;28;20492;-80
2021/12/15 13:37:10;;;;;;;22.33;11.55;;;;;;;;;;5113674;28;20051;-80
2021/12/15 13:39:44;;;;;;;19.27;10.52;;;;;;;;;;5113985;28;20047;-79
2021/12/15 13:42:14;;;;;;;18.48;10.15;;;;;;;;;;5113863;28;20035;-82
2021/12/15 13:44:41;;;;;;;17.02;9.35;;;;;;;;;;5113682;28;20049;-81
2021/12/15 13:47:10;;;;;;;14.75;7.97;;;;;;;;;;5113589;28;20086;-80
2021/12/15 13:49:53;;;;;;;14.07;8.15;;;;;;;;;;5113382;28;20048;-80
2021/12/15 13:52:31;;;;;;;15.65;8.13;;;;;;;;;;5095099;28;20397;-81
2021/12/15 13:55:00;;;;;;;15.38;7.53;;;;;;;;;;5112896;28;20047;-79
2021/12/15 13:57:30;;;;;;;14.63;8.10;;;;;;;;;;5095544;28;20495;-80
2021/12/15 14:00:00;;;;;;;19.92;8.40;;;;;;;;;;5095183;28;20054;-80
2021/12/15 14:02:33;;;;;;;14.25;8.10;;;;;;;;;;5113486;28;20469;-80
2021/12/15 14:04:59;;;;;;;13.95;7.93;;;;;;;;;;5113417;28;20530;-81
2021/12/15 14:07:31;;;;;;;15.88;8.77;;;;;;;;;;5113120;28;20082;-80
2021/12/15 14:10:12;;;;;;;17.98;8.25;;;;;;;;;;5113238;28;20043;-81
2021/12/15 14:12:38;;;;;;;;;;;;;;;;;;5095618;28;20143;-80
2021/12/15 14:15:05;;;;;;;15.93;7.60;;;;;;;;;;5094914;28;19958;-81
2021/12/15 14:17:31;;;;;;;14.13;6.20;;;;;;;;;;5113238;28;20089;-80
2021/12/15 14:19:57;;;;;;;13.55;6.65;;;;;;;;;;5095189;28;20062;-80
2021/12/15 14:22:23;;;;;;;14.85;6.65;;;;;;;;;;5113033;28;20070;-80
2021/12/15 14:24:50;;;;;;;15.43;6.65;;;;;;;;;;5113001;28;20132;-80
2021/12/15 14:27:17;;;;;;;12.90;6.32;;;;;;;;;;5094682;28;20047;-81
2021/12/15 14:29:43;;;;;;;14.48;7.00;;;;;;;;;;5094952;28;20081;-80
2021/12/15 14:32:09;;;;;;;14.18;7.10;;;;;;;;;;5078149;28;20079;-79
2021/12/15 14:34:37;;;;;;;16.05;6.63;;;;;;;;;;5113076;28;21021;-79
2021/12/15 14:37:06;;;;;;;12.95;6.57;;;;;;;;;;5113069;28;20046;-80
2021/12/15 14:39:35;;;;;;;12.77;6.22;;;;;;;;;;5094874;28;20036;-81
2021/12/15 14:42:04;;;;;;;13.50;5.80;;;;;;;;;;5094479;28;20048;-81
2021/12/15 14:44:31;;;;;;;14.55;5.25;;;;;;;;;;5112862;28;20039;-80
2021/12/15 14:46:58;;;;;;;16.92;5.75;;;;;;;;;;5112845;28;20042;-80
2021/12/15 14:49:26;;;;;;;11.50;5.28;;;;;;;;;;5094082;28;20092;-80
2021/12/15 14:51:53;;;;;;;16.75;5.93;;;;;;;;;;5112766;28;20049;-79
2021/12/15 14:54:21;;;;;;;12.00;5.28;;;;;;;;;;5112680;28;20071;-80
2021/12/15 14:56:48;;;;;;;12.23;5.45;;;;;;;;;;5112867;28;20044;-79
2021/12/15 14:59:18;;;;;;;9.40;5.07;;;;;;;;;;5112930;28;20102;-82
2021/12/15 15:01:45;;;;;;;14.10;5.22;;;;;;;;;;5094878;28;20423;-81
2021/12/15 15:04:13;;;;;;;11.10;4.53;;;;;;;;;;5112778;28;20392;-80
2021/12/15 15:06:39;;;;;;;11.95;4.38;;;;;;;;;;5112511;28;20043;-80
2021/12/15 15:09:11;;;;;;;15.55;4.78;;;;;;;;;;5112587;28;20183;-80
2021/12/15 15:11:37;;;;;;;11.80;5.15;;;;;;;;;;5112726;28;20047;-81
2021/12/15 15:14:03;;;;;;;10.88;4.68;;;;;;;;;;5112330;28;20453;-82
2021/12/15 15:16:34;;;;;;;11.07;4.20;;;;;;;;;;5112449;28;20047;-80
2021/12/15 15:19:15;;;;;;;9.07;3.67;;;;;;;;;;5096376;28;20472;-80
2021/12/15 15:21:41;;;;;;;;;;;;;;;;;;5116949;28;20063;-81
2021/12/15 15:24:07;;;;;;;10.23;4.43;;;;;;;;;;5116434;28;20357;-80
2021/12/15 15:26:34;;;;;;;13.00;5.53;;;;;;;;;;5116361;28;20086;-80
2021/12/15 15:29:00;;;;;;;10.93;4.65;;;;;;;;;;5116292;28;20104;-81
2021/12/15 15:31:30;;;;;;;10.00;5.22;;;;;;;;;;5098059;28;20055;-80
2021/12/15 15:33:58;;;;;;;10.63;4.55;;;;;;;;;;5116059;28;20044;-80
2021/12/15 15:36:27;;;;;;;13.25;3.63;;;;;;;;;;5116164;28;20031;-81
2021/12/15 15:38:54;;;;;;;11.25;3.80;;;;;;;;;;5116047;28;20079;-80
2021/12/15 15:41:22;;;;;;;12.35;3.28;;;;;;;;;;5113427;28;20043;-80
2021/12/15 15:43:56;;;;;;;11.45;4.03;;;;;;;;;;5096029;28;20051;-81
2021/12/15 15:46:27;;;;;;;18.38;7.95;;;;;;;;;;5097172;28;20056;-80
2021/12/15 15:48:54;;;;;;;15.48;4.63;;;;;;;;;;5115662;28;20496;-80
2021/12/15 15:51:22;;;;;;;9.43;3.20;;;;;;;;;;5097207;28;20044;-80
2021/12/15 15:53:52;;;;;;;8.02;2.88;;;;;;;;;;5115386;28;20051;-80
2021/12/15 15:56:19;;;;;;;9.55;2.35;;;;;;;;;;5115292;28;20231;-80
2021/12/15 15:58:48;;;;;;;9.05;2.70;;;;;;;;;;5115096;28;20050;-80
2021/12/15 16:01:15;;;;;;;9.32;2.17;;;;;;;;;;5115554;28;20051;-80
2021/12/15 16:03:42;;;;;;;7.75;2.42;;;;;;;;;;5115488;28;20396;-80
2021/12/15 16:06:09;;;;;;;7.40;2.40;;;;;;;;;;5115453;28;20130;-81
2021/12/15 16:08:37;;;;;;;8.93;2.50;;;;;;;;;;5115427;28;20430;-81
2021/12/15 16:11:04;;;;;;;7.20;2.38;;;;;;;;;;5097378;28;20090;-81